sensor_id;sensor_type;location;lat;lon;timestamp;P1;durP1;ratioP1;P2;durP2;ratioP2
71902;SDS011;59778;50.310;18.780;2023-03-23T00:07:08;42.77;;;19.93;;
71902;SDS011;59778;50.310;18.780;2023-03-23T00:22:29;36.50;;;16.73;;
71902;SDS011;59778;50.310;18.780;2023-03-23T00:37:51;40.67;;;17.13;;
71902;SDS011;59778;50.310;18.780;2023-03-23T00:53:12;48.73;;;20.17;;
71902;SDS011;59778;50.310;18.780;2023-03-23T01:08:34;49.20;;;19.13;;
71902;SDS011;59778;50.310;18.780;2023-03-23T01:23:57;40.37;;;18.73;;
71902;SDS011;59778;50.310;18.780;2023-03-23T01:39:19;64.30;;;24.70;;
71902;SDS011;59778;50.310;18.780;2023-03-23T01:54:41;31.93;;;15.87;;
71902;SDS011;59778;50.310;18.780;2023-03-23T02:10:05;27.33;;;13.07;;
71902;SDS011;59778;50.310;18.780;2023-03-23T02:41:08;30.23;;;13.50;;
71902;SDS011;59778;50.310;18.780;2023-03-23T02:56:31;23.80;;;12.20;;
71902;SDS011;59778;50.310;18.780;2023-03-23T03:11:57;21.97;;;11.33;;
71902;SDS011;59778;50.310;18.780;2023-03-23T03:27:26;22.90;;;12.17;;
71902;SDS011;59778;50.310;18.780;2023-03-23T03:42:49;26.23;;;10.37;;
71902;SDS011;59778;50.310;18.780;2023-03-23T03:58:11;17.77;;;8.73;;
71902;SDS011;59778;50.310;18.780;2023-03-23T04:13:33;19.13;;;9.10;;
71902;SDS011;59778;50.310;18.780;2023-03-23T04:28:54;27.83;;;9.97;;
71902;SDS011;59778;50.310;18.780;2023-03-23T04:44:16;23.47;;;9.83;;
71902;SDS011;59778;50.310;18.780;2023-03-23T04:59:38;23.57;;;10.63;;
71902;SDS011;59778;50.310;18.780;2023-03-23T05:14:59;22.33;;;10.33;;
71902;SDS011;59778;50.310;18.780;2023-03-23T05:30:21;24.37;;;10.20;;
71902;SDS011;59778;50.310;18.780;2023-03-23T05:45:42;22.27;;;10.53;;
71902;SDS011;59778;50.310;18.780;2023-03-23T06:01:07;22.53;;;12.30;;
71902;SDS011;59778;50.310;18.780;2023-03-23T06:16:29;22.40;;;10.47;;
71902;SDS011;59778;50.310;18.780;2023-03-23T06:31:55;18.33;;;8.50;;
71902;SDS011;59778;50.310;18.780;2023-03-23T06:47:19;15.20;;;6.90;;
71902;SDS011;59778;50.310;18.780;2023-03-23T07:02:41;16.70;;;6.50;;
71902;SDS011;59778;50.310;18.780;2023-03-23T07:18:03;12.80;;;5.87;;
71902;SDS011;59778;50.310;18.780;2023-03-23T07:33:24;13.80;;;6.17;;
71902;SDS011;59778;50.310;18.780;2023-03-23T07:48:47;17.03;;;7.10;;
71902;SDS011;59778;50.310;18.780;2023-03-23T08:04:08;15.00;;;7.30;;
71902;SDS011;59778;50.310;18.780;2023-03-23T08:19:30;17.37;;;7.03;;
71902;SDS011;59778;50.310;18.780;2023-03-23T08:34:51;12.07;;;6.00;;
71902;SDS011;59778;50.310;18.780;2023-03-23T08:50:16;13.23;;;5.93;;
71902;SDS011;59778;50.310;18.780;2023-03-23T09:05:38;15.83;;;5.63;;
71902;SDS011;59778;50.310;18.780;2023-03-23T09:21:06;13.10;;;4.90;;
71902;SDS011;59778;50.310;18.780;2023-03-23T09:36:29;12.27;;;4.40;;
71902;SDS011;59778;50.310;18.780;2023-03-23T09:52:03;11.13;;;3.97;;
71902;SDS011;59778;50.310;18.780;2023-03-23T10:07:31;10.10;;;4.07;;
71902;SDS011;59778;50.310;18.780;2023-03-23T10:38:19;10.93;;;3.40;;
71902;SDS011;59778;50.310;18.780;2023-03-23T10:53:51;7.83;;;3.30;;
71902;SDS011;59778;50.310;18.780;2023-03-23T11:09:17;13.97;;;3.37;;
71902;SDS011;59778;50.310;18.780;2023-03-23T11:24:42;13.13;;;3.87;;
71902;SDS011;59778;50.310;18.780;2023-03-23T12:57:46;13.80;;;4.43;;
71902;SDS011;59778;50.310;18.780;2023-03-23T13:13:16;10.67;;;3.57;;
71902;SDS011;59778;50.310;18.780;2023-03-23T13:44:18;8.47;;;2.77;;
71902;SDS011;59778;50.310;18.780;2023-03-23T13:59:47;8.13;;;3.77;;
71902;SDS011;59778;50.310;18.780;2023-03-23T14:15:12;12.63;;;3.97;;
71902;SDS011;59778;50.310;18.780;2023-03-23T14:30:36;10.90;;;4.40;;
71902;SDS011;59778;50.310;18.780;2023-03-23T14:45:58;10.23;;;4.03;;
71902;SDS011;59778;50.310;18.780;2023-03-23T15:01:26;13.23;;;4.30;;
71902;SDS011;59778;50.310;18.780;2023-03-23T15:16:50;16.10;;;5.97;;
71902;SDS011;59778;50.310;18.780;2023-03-23T15:32:20;13.50;;;5.97;;
71902;SDS011;59778;50.310;18.780;2023-03-23T15:48:10;17.37;;;7.63;;
71902;SDS011;59778;50.310;18.780;2023-03-23T16:03:40;17.17;;;7.37;;
71902;SDS011;59778;50.310;18.780;2023-03-23T16:19:28;15.47;;;6.63;;
71902;SDS011;59778;50.310;18.780;2023-03-23T16:34:49;20.83;;;8.13;;
71902;SDS011;59778;50.310;18.780;2023-03-23T16:50:12;18.07;;;7.70;;
71902;SDS011;59778;50.310;18.780;2023-03-23T17:05:36;21.27;;;8.10;;
71902;SDS011;59778;50.310;18.780;2023-03-23T17:20:57;25.60;;;11.73;;
71902;SDS011;59778;50.310;18.780;2023-03-23T17:36:19;60.33;;;18.37;;
71902;SDS011;59778;50.310;18.780;2023-03-23T17:51:40;43.00;;;20.37;;
71902;SDS011;59778;50.310;18.780;2023-03-23T18:07:02;90.47;;;31.77;;
71902;SDS011;59778;50.310;18.780;2023-03-23T18:22:23;23.63;;;8.80;;
71902;SDS011;59778;50.310;18.780;2023-03-23T18:37:45;35.30;;;16.77;;
71902;SDS011;59778;50.310;18.780;2023-03-23T18:53:07;39.27;;;17.77;;
71902;SDS011;59778;50.310;18.780;2023-03-23T19:08:29;34.33;;;17.40;;
71902;SDS011;59778;50.310;18.780;2023-03-23T19:23:52;40.50;;;17.63;;
71902;SDS011;59778;50.310;18.780;2023-03-23T19:39:14;48.63;;;20.30;;
71902;SDS011;59778;50.310;18.780;2023-03-23T19:54:36;38.23;;;16.17;;
71902;SDS011;59778;50.310;18.780;2023-03-23T20:09:59;48.70;;;21.83;;
71902;SDS011;59778;50.310;18.780;2023-03-23T20:25:20;33.33;;;15.57;;
71902;SDS011;59778;50.310;18.780;2023-03-23T20:40:42;33.10;;;13.47;;
71902;SDS011;59778;50.310;18.780;2023-03-23T20:56:05;24.70;;;10.17;;
71902;SDS011;59778;50.310;18.780;2023-03-23T21:11:27;23.83;;;9.47;;
71902;SDS011;59778;50.310;18.780;2023-03-23T21:26:49;18.30;;;6.77;;
71902;SDS011;59778;50.310;18.780;2023-03-23T21:42:11;19.67;;;7.50;;
71902;SDS011;59778;50.310;18.780;2023-03-23T21:57:33;16.17;;;6.30;;
71902;SDS011;59778;50.310;18.780;2023-03-23T22:12:55;12.53;;;4.27;;
71902;SDS011;59778;50.310;18.780;2023-03-23T22:28:17;9.57;;;4.37;;
71902;SDS011;59778;50.310;18.780;2023-03-23T22:43:39;15.53;;;7.50;;
71902;SDS011;59778;50.310;18.780;2023-03-23T22:59:00;13.33;;;5.93;;
71902;SDS011;59778;50.310;18.780;2023-03-23T23:14:22;14.37;;;6.60;;
71902;SDS011;59778;50.310;18.780;2023-03-23T23:29:43;18.43;;;6.57;;
71902;SDS011;59778;50.310;18.780;2023-03-23T23:45:04;17.33;;;6.83;;
